sensor_id;sensor_type;location;lat;lon;timestamp;temperature;humidity
43810;DHT22;29440;48.208;11.162;2024-02-15T00:00:36;9.50;99.90
43810;DHT22;29440;48.208;11.162;2024-02-15T00:03:03;9.40;99.90
43810;DHT22;29440;48.208;11.162;2024-02-15T00:05:29;9.40;99.90
43810;DHT22;29440;48.208;11.162;2024-02-15T00:07:54;9.30;99.90
43810;DHT22;29440;48.208;11.162;2024-02-15T00:10:20;9.30;99.90
43810;DHT22;29440;48.208;11.162;2024-02-15T00:12:50;9.30;99.90
43810;DHT22;29440;48.208;11.162;2024-02-15T00:15:16;9.30;99.90
43810;DHT22;29440;48.208;11.162;2024-02-15T00:17:42;9.20;99.90
43810;DHT22;29440;48.208;11.162;2024-02-15T00:20:07;9.20;99.90
43810;DHT22;29440;48.208;11.162;2024-02-15T00:22:35;9.20;99.90
43810;DHT22;29440;48.208;11.162;2024-02-15T00:25:01;9.10;99.90
43810;DHT22;29440;48.208;11.162;2024-02-15T00:27:26;9.10;99.90
43810;DHT22;29440;48.208;11.162;2024-02-15T00:29:52;9.10;99.90
43810;DHT22;29440;48.208;11.162;2024-02-15T00:32:17;9.10;99.90
43810;DHT22;29440;48.208;11.162;2024-02-15T00:34:43;9.00;99.90
43810;DHT22;29440;48.208;11.162;2024-02-15T00:37:08;9.00;99.90
43810;DHT22;29440;48.208;11.162;2024-02-15T00:39:34;9.00;99.90
43810;DHT22;29440;48.208;11.162;2024-02-15T00:42:00;9.00;99.90
43810;DHT22;29440;48.208;11.162;2024-02-15T00:44:26;8.90;99.90
43810;DHT22;29440;48.208;11.162;2024-02-15T00:46:52;8.90;99.90
43810;DHT22;29440;48.208;11.162;2024-02-15T00:49:17;8.90;99.90
43810;DHT22;29440;48.208;11.162;2024-02-15T00:51:46;8.90;99.90
43810;DHT22;29440;48.208;11.162;2024-02-15T00:54:11;8.80;99.90
43810;DHT22;29440;48.208;11.162;2024-02-15T00:56:37;8.90;99.90
43810;DHT22;29440;48.208;11.162;2024-02-15T00:59:03;8.80;99.90
43810;DHT22;29440;48.208;11.162;2024-02-15T01:01:28;8.80;99.90
43810;DHT22;29440;48.208;11.162;2024-02-15T01:03:54;8.80;99.90
43810;DHT22;29440;48.208;11.162;2024-02-15T01:06:20;8.70;99.90
43810;DHT22;29440;48.208;11.162;2024-02-15T01:08:45;8.70;99.90
43810;DHT22;29440;48.208;11.162;2024-02-15T01:11:11;8.70;99.90
43810;DHT22;29440;48.208;11.162;2024-02-15T01:13:36;8.70;99.90
43810;DHT22;29440;48.208;11.162;2024-02-15T01:16:02;8.80;99.90
43810;DHT22;29440;48.208;11.162;2024-02-15T01:18:29;8.60;99.90
43810;DHT22;29440;48.208;11.162;2024-02-15T01:20:55;8.60;99.90
43810;DHT22;29440;48.208;11.162;2024-02-15T01:23:21;8.50;99.90
43810;DHT22;29440;48.208;11.162;2024-02-15T01:25:48;8.50;99.90
43810;DHT22;29440;48.208;11.162;2024-02-15T01:28:14;8.50;99.90
43810;DHT22;29440;48.208;11.162;2024-02-15T01:30:39;8.50;99.90
43810;DHT22;29440;48.208;11.162;2024-02-15T01:33:05;8.40;99.90
43810;DHT22;29440;48.208;11.162;2024-02-15T01:35:30;8.40;99.90
43810;DHT22;29440;48.208;11.162;2024-02-15T01:37:56;8.40;99.90
43810;DHT22;29440;48.208;11.162;2024-02-15T01:40:22;8.40;99.90
43810;DHT22;29440;48.208;11.162;2024-02-15T01:42:47;8.40;99.90
43810;DHT22;29440;48.208;11.162;2024-02-15T01:45:15;8.40;99.90
43810;DHT22;29440;48.208;11.162;2024-02-15T01:47:41;8.40;99.90
43810;DHT22;29440;48.208;11.162;2024-02-15T01:50:11;8.40;99.90
43810;DHT22;29440;48.208;11.162;2024-02-15T01:52:37;8.30;99.90
43810;DHT22;29440;48.208;11.162;2024-02-15T01:55:05;8.30;99.90
43810;DHT22;29440;48.208;11.162;2024-02-15T01:57:35;8.30;99.90
43810;DHT22;29440;48.208;11.162;2024-02-15T02:00:01;8.30;99.90
43810;DHT22;29440;48.208;11.162;2024-02-15T02:02:30;8.30;99.90
43810;DHT22;29440;48.208;11.162;2024-02-15T02:04:58;8.30;99.90
43810;DHT22;29440;48.208;11.162;2024-02-15T02:07:23;8.30;99.90
43810;DHT22;29440;48.208;11.162;2024-02-15T02:09:49;8.30;99.90
43810;DHT22;29440;48.208;11.162;2024-02-15T02:12:15;8.30;99.90
43810;DHT22;29440;48.208;11.162;2024-02-15T02:14:41;8.30;99.90
43810;DHT22;29440;48.208;11.162;2024-02-15T02:17:13;8.30;99.90
43810;DHT22;29440;48.208;11.162;2024-02-15T02:19:40;8.30;99.90
43810;DHT22;29440;48.208;11.162;2024-02-15T02:22:06;8.20;99.90
43810;DHT22;29440;48.208;11.162;2024-02-15T02:24:38;8.30;99.90
43810;DHT22;29440;48.208;11.162;2024-02-15T02:27:07;8.20;99.90
43810;DHT22;29440;48.208;11.162;2024-02-15T02:29:33;8.20;99.90
43810;DHT22;29440;48.208;11.162;2024-02-15T02:31:59;8.30;99.90
43810;DHT22;29440;48.208;11.162;2024-02-15T02:34:25;8.30;99.90
43810;DHT22;29440;48.208;11.162;2024-02-15T02:36:50;8.30;99.90
43810;DHT22;29440;48.208;11.162;2024-02-15T02:39:16;8.20;99.90
43810;DHT22;29440;48.208;11.162;2024-02-15T02:41:42;8.20;99.90
43810;DHT22;29440;48.208;11.162;2024-02-15T02:44:08;8.20;99.90
43810;DHT22;29440;48.208;11.162;2024-02-15T02:46:34;8.20;99.90
43810;DHT22;29440;48.208;11.162;2024-02-15T02:49:00;8.10;99.90
43810;DHT22;29440;48.208;11.162;2024-02-15T02:51:25;8.20;99.90
43810;DHT22;29440;48.208;11.162;2024-02-15T02:53:51;8.10;99.90
43810;DHT22;29440;48.208;11.162;2024-02-15T02:56:16;8.10;99.90
43810;DHT22;29440;48.208;11.162;2024-02-15T02:58:43;8.10;99.90
43810;DHT22;29440;48.208;11.162;2024-02-15T03:01:10;8.20;99.90
43810;DHT22;29440;48.208;11.162;2024-02-15T03:03:36;8.00;99.90
43810;DHT22;29440;48.208;11.162;2024-02-15T03:06:03;8.00;99.90
43810;DHT22;29440;48.208;11.162;2024-02-15T03:08:30;8.00;99.90
43810;DHT22;29440;48.208;11.162;2024-02-15T03:10:55;8.00;99.90
43810;DHT22;29440;48.208;11.162;2024-02-15T03:13:21;8.00;99.90
43810;DHT22;29440;48.208;11.162;2024-02-15T03:15:47;7.90;99.90
43810;DHT22;29440;48.208;11.162;2024-02-15T03:18:15;7.90;99.90
43810;DHT22;29440;48.208;11.162;2024-02-15T03:20:41;7.90;99.90
43810;DHT22;29440;48.208;11.162;2024-02-15T03:23:07;7.90;99.90
43810;DHT22;29440;48.208;11.162;2024-02-15T03:25:33;7.90;99.90
43810;DHT22;29440;48.208;11.162;2024-02-15T03:28:00;7.80;99.90
43810;DHT22;29440;48.208;11.162;2024-02-15T03:30:30;7.90;99.90
43810;DHT22;29440;48.208;11.162;2024-02-15T03:32:56;7.80;99.90
43810;DHT22;29440;48.208;11.162;2024-02-15T03:35:25;7.80;99.90
43810;DHT22;29440;48.208;11.162;2024-02-15T03:37:52;7.80;99.90
43810;DHT22;29440;48.208;11.162;2024-02-15T03:40:22;7.70;99.90
43810;DHT22;29440;48.208;11.162;2024-02-15T03:42:48;7.60;99.90
43810;DHT22;29440;48.208;11.162;2024-02-15T03:45:15;7.60;99.90
43810;DHT22;29440;48.208;11.162;2024-02-15T03:47:41;7.60;99.90
43810;DHT22;29440;48.208;11.162;2024-02-15T03:50:08;7.60;99.90
43810;DHT22;29440;48.208;11.162;2024-02-15T03:52:37;7.60;99.90
43810;DHT22;29440;48.208;11.162;2024-02-15T03:55:04;7.50;99.90
43810;DHT22;29440;48.208;11.162;2024-02-15T03:57:30;7.50;99.90
43810;DHT22;29440;48.208;11.162;2024-02-15T03:59:56;7.50;99.90
43810;DHT22;29440;48.208;11.162;2024-02-15T04:02:23;7.40;99.90
43810;DHT22;29440;48.208;11.162;2024-02-15T04:04:54;7.40;99.90
43810;DHT22;29440;48.208;11.162;2024-02-15T04:07:21;7.40;99.90
43810;DHT22;29440;48.208;11.162;2024-02-15T04:09:48;7.30;99.90
43810;DHT22;29440;48.208;11.162;2024-02-15T04:12:14;7.30;99.90
43810;DHT22;29440;48.208;11.162;2024-02-15T04:14:40;7.30;99.90
43810;DHT22;29440;48.208;11.162;2024-02-15T04:17:07;7.20;99.90
43810;DHT22;29440;48.208;11.162;2024-02-15T04:19:32;7.20;99.90
43810;DHT22;29440;48.208;11.162;2024-02-15T04:21:58;7.20;99.90
43810;DHT22;29440;48.208;11.162;2024-02-15T04:24:26;7.20;99.90
43810;DHT22;29440;48.208;11.162;2024-02-15T04:26:52;7.20;99.90
43810;DHT22;29440;48.208;11.162;2024-02-15T04:29:18;7.20;99.90
43810;DHT22;29440;48.208;11.162;2024-02-15T04:31:46;7.10;99.90
43810;DHT22;29440;48.208;11.162;2024-02-15T04:34:15;7.00;99.90
43810;DHT22;29440;48.208;11.162;2024-02-15T04:36:40;7.00;99.90
43810;DHT22;29440;48.208;11.162;2024-02-15T04:39:06;6.90;99.90
43810;DHT22;29440;48.208;11.162;2024-02-15T04:41:31;6.80;99.90
43810;DHT22;29440;48.208;11.162;2024-02-15T04:43:57;6.80;99.90
43810;DHT22;29440;48.208;11.162;2024-02-15T04:46:23;6.70;99.90
43810;DHT22;29440;48.208;11.162;2024-02-15T04:48:50;6.60;99.90
43810;DHT22;29440;48.208;11.162;2024-02-15T04:51:16;6.50;99.90
43810;DHT22;29440;48.208;11.162;2024-02-15T04:53:42;6.50;99.90
43810;DHT22;29440;48.208;11.162;2024-02-15T04:56:08;6.40;99.90
43810;DHT22;29440;48.208;11.162;2024-02-15T04:58:40;6.40;99.90
43810;DHT22;29440;48.208;11.162;2024-02-15T05:01:19;6.40;99.90
43810;DHT22;29440;48.208;11.162;2024-02-15T05:03:45;6.30;99.90
43810;DHT22;29440;48.208;11.162;2024-02-15T05:06:12;6.30;99.90
43810;DHT22;29440;48.208;11.162;2024-02-15T05:08:41;6.20;99.90
43810;DHT22;29440;48.208;11.162;2024-02-15T05:11:12;6.30;99.90
43810;DHT22;29440;48.208;11.162;2024-02-15T05:13:43;6.20;99.90
43810;DHT22;29440;48.208;11.162;2024-02-15T05:16:10;6.20;99.90
43810;DHT22;29440;48.208;11.162;2024-02-15T05:18:36;6.10;99.90
43810;DHT22;29440;48.208;11.162;2024-02-15T05:21:03;6.10;99.90
43810;DHT22;29440;48.208;11.162;2024-02-15T05:23:30;6.10;99.90
43810;DHT22;29440;48.208;11.162;2024-02-15T05:25:55;6.00;99.90
43810;DHT22;29440;48.208;11.162;2024-02-15T05:28:22;6.00;99.90
43810;DHT22;29440;48.208;11.162;2024-02-15T05:31:11;5.90;99.90
43810;DHT22;29440;48.208;11.162;2024-02-15T05:33:38;5.90;99.90
43810;DHT22;29440;48.208;11.162;2024-02-15T05:36:12;5.90;99.90
43810;DHT22;29440;48.208;11.162;2024-02-15T05:38:39;5.90;99.90
43810;DHT22;29440;48.208;11.162;2024-02-15T05:41:04;5.80;99.90
43810;DHT22;29440;48.208;11.162;2024-02-15T05:43:31;5.80;99.90
43810;DHT22;29440;48.208;11.162;2024-02-15T05:45:57;5.80;99.90
43810;DHT22;29440;48.208;11.162;2024-02-15T05:48:24;5.80;99.90
43810;DHT22;29440;48.208;11.162;2024-02-15T05:50:50;5.80;99.90
43810;DHT22;29440;48.208;11.162;2024-02-15T05:53:15;5.80;99.90
43810;DHT22;29440;48.208;11.162;2024-02-15T05:55:41;5.70;99.90
43810;DHT22;29440;48.208;11.162;2024-02-15T05:58:10;5.70;99.90
43810;DHT22;29440;48.208;11.162;2024-02-15T06:00:37;5.70;99.90
43810;DHT22;29440;48.208;11.162;2024-02-15T06:03:04;5.70;99.90
43810;DHT22;29440;48.208;11.162;2024-02-15T06:05:31;5.60;99.90
43810;DHT22;29440;48.208;11.162;2024-02-15T06:07:57;5.60;99.90
43810;DHT22;29440;48.208;11.162;2024-02-15T06:10:24;5.60;99.90
43810;DHT22;29440;48.208;11.162;2024-02-15T06:12:51;5.60;99.90
43810;DHT22;29440;48.208;11.162;2024-02-15T06:15:16;5.60;99.90
43810;DHT22;29440;48.208;11.162;2024-02-15T06:17:42;5.60;99.90
43810;DHT22;29440;48.208;11.162;2024-02-15T06:20:11;5.60;99.90
43810;DHT22;29440;48.208;11.162;2024-02-15T06:22:40;5.50;99.90
43810;DHT22;29440;48.208;11.162;2024-02-15T06:25:05;5.60;99.90
43810;DHT22;29440;48.208;11.162;2024-02-15T06:27:31;5.60;99.90
43810;DHT22;29440;48.208;11.162;2024-02-15T06:29:58;5.60;99.90
43810;DHT22;29440;48.208;11.162;2024-02-15T06:32:42;5.60;99.90
43810;DHT22;29440;48.208;11.162;2024-02-15T06:35:26;5.60;99.90
43810;DHT22;29440;48.208;11.162;2024-02-15T06:38:10;5.60;99.90
43810;DHT22;29440;48.208;11.162;2024-02-15T06:40:54;5.60;99.90
43810;DHT22;29440;48.208;11.162;2024-02-15T06:43:20;5.60;99.90
43810;DHT22;29440;48.208;11.162;2024-02-15T06:45:46;5.60;99.90
43810;DHT22;29440;48.208;11.162;2024-02-15T06:48:12;5.60;99.90
43810;DHT22;29440;48.208;11.162;2024-02-15T06:50:38;5.70;99.90
43810;DHT22;29440;48.208;11.162;2024-02-15T06:53:04;5.70;99.90
43810;DHT22;29440;48.208;11.162;2024-02-15T06:55:30;5.80;99.90
43810;DHT22;29440;48.208;11.162;2024-02-15T06:57:56;5.90;99.90
43810;DHT22;29440;48.208;11.162;2024-02-15T07:00:21;5.90;99.90
43810;DHT22;29440;48.208;11.162;2024-02-15T07:02:47;6.10;99.90
43810;DHT22;29440;48.208;11.162;2024-02-15T07:05:14;6.30;99.90
43810;DHT22;29440;48.208;11.162;2024-02-15T07:07:39;6.50;99.90
43810;DHT22;29440;48.208;11.162;2024-02-15T07:10:08;6.80;99.90
43810;DHT22;29440;48.208;11.162;2024-02-15T07:12:35;7.00;99.90
43810;DHT22;29440;48.208;11.162;2024-02-15T07:15:01;7.30;99.90
43810;DHT22;29440;48.208;11.162;2024-02-15T07:17:29;7.60;99.90
43810;DHT22;29440;48.208;11.162;2024-02-15T07:19:54;7.90;99.90
43810;DHT22;29440;48.208;11.162;2024-02-15T07:22:20;8.10;99.90
43810;DHT22;29440;48.208;11.162;2024-02-15T07:24:47;8.30;99.90
43810;DHT22;29440;48.208;11.162;2024-02-15T07:27:13;8.60;99.90
43810;DHT22;29440;48.208;11.162;2024-02-15T07:29:38;8.90;99.90
43810;DHT22;29440;48.208;11.162;2024-02-15T07:32:07;9.10;99.90
43810;DHT22;29440;48.208;11.162;2024-02-15T07:34:33;9.50;99.90
43810;DHT22;29440;48.208;11.162;2024-02-15T07:37:01;9.90;99.90
43810;DHT22;29440;48.208;11.162;2024-02-15T07:39:27;10.30;99.90
43810;DHT22;29440;48.208;11.162;2024-02-15T07:41:56;10.60;99.90
43810;DHT22;29440;48.208;11.162;2024-02-15T07:44:24;11.00;99.90
43810;DHT22;29440;48.208;11.162;2024-02-15T07:46:50;11.60;99.90
43810;DHT22;29440;48.208;11.162;2024-02-15T07:49:16;12.10;99.90
43810;DHT22;29440;48.208;11.162;2024-02-15T07:51:43;12.60;99.90
43810;DHT22;29440;48.208;11.162;2024-02-15T07:54:09;13.10;99.90
43810;DHT22;29440;48.208;11.162;2024-02-15T07:56:36;13.40;99.90
43810;DHT22;29440;48.208;11.162;2024-02-15T07:59:02;13.80;99.90
43810;DHT22;29440;48.208;11.162;2024-02-15T08:01:28;14.20;99.90
43810;DHT22;29440;48.208;11.162;2024-02-15T08:03:56;14.60;99.90
43810;DHT22;29440;48.208;11.162;2024-02-15T08:06:22;14.90;99.90
43810;DHT22;29440;48.208;11.162;2024-02-15T08:08:50;15.00;99.90
43810;DHT22;29440;48.208;11.162;2024-02-15T08:11:17;15.30;99.90
43810;DHT22;29440;48.208;11.162;2024-02-15T08:13:51;15.70;99.90
43810;DHT22;29440;48.208;11.162;2024-02-15T08:16:21;16.10;99.90
43810;DHT22;29440;48.208;11.162;2024-02-15T08:18:52;16.50;99.90
43810;DHT22;29440;48.208;11.162;2024-02-15T08:21:29;16.90;99.90
43810;DHT22;29440;48.208;11.162;2024-02-15T08:24:00;17.20;99.90
43810;DHT22;29440;48.208;11.162;2024-02-15T08:26:27;17.60;99.90
43810;DHT22;29440;48.208;11.162;2024-02-15T08:28:55;17.90;99.90
43810;DHT22;29440;48.208;11.162;2024-02-15T08:31:21;18.20;99.90
43810;DHT22;29440;48.208;11.162;2024-02-15T08:33:47;18.50;99.90
43810;DHT22;29440;48.208;11.162;2024-02-15T08:36:12;18.80;99.80
43810;DHT22;29440;48.208;11.162;2024-02-15T08:38:41;18.60;99.00
43810;DHT22;29440;48.208;11.162;2024-02-15T08:41:07;19.00;99.00
43810;DHT22;29440;48.208;11.162;2024-02-15T08:43:34;19.10;97.50
43810;DHT22;29440;48.208;11.162;2024-02-15T08:45:59;19.30;98.50
43810;DHT22;29440;48.208;11.162;2024-02-15T08:48:26;19.50;97.10
43810;DHT22;29440;48.208;11.162;2024-02-15T08:50:52;19.40;97.20
43810;DHT22;29440;48.208;11.162;2024-02-15T08:53:17;19.10;96.50
43810;DHT22;29440;48.208;11.162;2024-02-15T08:55:45;18.80;96.80
43810;DHT22;29440;48.208;11.162;2024-02-15T08:58:10;18.80;98.20
43810;DHT22;29440;48.208;11.162;2024-02-15T09:00:36;18.50;97.20
43810;DHT22;29440;48.208;11.162;2024-02-15T09:03:06;18.50;99.10
43810;DHT22;29440;48.208;11.162;2024-02-15T09:05:32;18.30;97.00
43810;DHT22;29440;48.208;11.162;2024-02-15T09:07:58;18.10;96.80
43810;DHT22;29440;48.208;11.162;2024-02-15T09:10:23;18.10;97.10
43810;DHT22;29440;48.208;11.162;2024-02-15T09:12:49;18.10;97.10
43810;DHT22;29440;48.208;11.162;2024-02-15T09:15:15;18.00;96.80
43810;DHT22;29440;48.208;11.162;2024-02-15T09:17:42;18.30;97.40
43810;DHT22;29440;48.208;11.162;2024-02-15T09:20:10;18.50;97.60
43810;DHT22;29440;48.208;11.162;2024-02-15T09:22:51;18.60;96.70
43810;DHT22;29440;48.208;11.162;2024-02-15T09:25:20;18.90;97.10
43810;DHT22;29440;48.208;11.162;2024-02-15T09:27:46;19.00;96.60
43810;DHT22;29440;48.208;11.162;2024-02-15T09:30:12;18.90;96.80
43810;DHT22;29440;48.208;11.162;2024-02-15T09:32:41;18.80;96.10
43810;DHT22;29440;48.208;11.162;2024-02-15T09:35:08;18.90;96.20
43810;DHT22;29440;48.208;11.162;2024-02-15T09:37:42;18.90;96.30
43810;DHT22;29440;48.208;11.162;2024-02-15T09:40:10;18.80;95.70
43810;DHT22;29440;48.208;11.162;2024-02-15T09:42:37;18.70;96.20
43810;DHT22;29440;48.208;11.162;2024-02-15T09:45:05;18.70;96.10
43810;DHT22;29440;48.208;11.162;2024-02-15T09:47:35;18.60;96.50
43810;DHT22;29440;48.208;11.162;2024-02-15T09:50:10;18.50;96.00
43810;DHT22;29440;48.208;11.162;2024-02-15T09:52:38;18.40;96.60
43810;DHT22;29440;48.208;11.162;2024-02-15T09:55:05;18.40;95.50
43810;DHT22;29440;48.208;11.162;2024-02-15T09:57:31;18.30;96.80
43810;DHT22;29440;48.208;11.162;2024-02-15T10:00:00;18.40;96.80
43810;DHT22;29440;48.208;11.162;2024-02-15T10:02:29;18.30;96.10
43810;DHT22;29440;48.208;11.162;2024-02-15T10:04:56;18.10;96.20
43810;DHT22;29440;48.208;11.162;2024-02-15T10:07:25;18.20;96.00
43810;DHT22;29440;48.208;11.162;2024-02-15T10:09:52;18.10;97.00
43810;DHT22;29440;48.208;11.162;2024-02-15T10:12:18;18.10;96.50
43810;DHT22;29440;48.208;11.162;2024-02-15T10:14:52;18.00;97.30
43810;DHT22;29440;48.208;11.162;2024-02-15T10:17:20;18.10;97.80
43810;DHT22;29440;48.208;11.162;2024-02-15T10:20:05;18.00;97.30
43810;DHT22;29440;48.208;11.162;2024-02-15T10:22:31;18.00;97.40
43810;DHT22;29440;48.208;11.162;2024-02-15T10:25:13;18.00;97.10
43810;DHT22;29440;48.208;11.162;2024-02-15T10:27:42;17.60;97.40
43810;DHT22;29440;48.208;11.162;2024-02-15T10:30:16;17.60;98.00
43810;DHT22;29440;48.208;11.162;2024-02-15T10:32:42;17.60;98.20
43810;DHT22;29440;48.208;11.162;2024-02-15T10:35:08;17.60;99.00
43810;DHT22;29440;48.208;11.162;2024-02-15T10:37:33;17.60;99.20
43810;DHT22;29440;48.208;11.162;2024-02-15T10:40:05;17.50;99.80
43810;DHT22;29440;48.208;11.162;2024-02-15T10:42:33;17.50;99.10
43810;DHT22;29440;48.208;11.162;2024-02-15T10:45:03;17.50;99.50
43810;DHT22;29440;48.208;11.162;2024-02-15T10:47:30;17.50;99.90
43810;DHT22;29440;48.208;11.162;2024-02-15T10:49:57;17.50;99.90
43810;DHT22;29440;48.208;11.162;2024-02-15T10:52:25;17.50;99.90
43810;DHT22;29440;48.208;11.162;2024-02-15T10:55:05;17.30;99.90
43810;DHT22;29440;48.208;11.162;2024-02-15T10:57:37;17.20;99.90
43810;DHT22;29440;48.208;11.162;2024-02-15T11:00:06;17.10;99.90
43810;DHT22;29440;48.208;11.162;2024-02-15T11:02:42;17.00;99.90
43810;DHT22;29440;48.208;11.162;2024-02-15T11:05:12;16.90;99.90
43810;DHT22;29440;48.208;11.162;2024-02-15T11:07:40;16.90;99.90
43810;DHT22;29440;48.208;11.162;2024-02-15T11:10:07;16.80;99.90
43810;DHT22;29440;48.208;11.162;2024-02-15T11:12:36;16.70;99.90
43810;DHT22;29440;48.208;11.162;2024-02-15T11:15:03;16.70;99.90
43810;DHT22;29440;48.208;11.162;2024-02-15T11:22:58;16.60;99.90
43810;DHT22;29440;48.208;11.162;2024-02-15T11:25:34;16.60;99.90
43810;DHT22;29440;48.208;11.162;2024-02-15T11:30:51;16.60;99.90
43810;DHT22;29440;48.208;11.162;2024-02-15T11:33:33;16.60;99.90
43810;DHT22;29440;48.208;11.162;2024-02-15T11:36:09;16.60;99.90
43810;DHT22;29440;48.208;11.162;2024-02-15T11:38:37;16.60;99.90
43810;DHT22;29440;48.208;11.162;2024-02-15T11:41:07;16.60;99.90
43810;DHT22;29440;48.208;11.162;2024-02-15T11:46:09;16.50;99.90
43810;DHT22;29440;48.208;11.162;2024-02-15T11:48:38;16.60;99.90
43810;DHT22;29440;48.208;11.162;2024-02-15T11:51:05;16.70;99.90
43810;DHT22;29440;48.208;11.162;2024-02-15T11:53:32;16.70;99.90
43810;DHT22;29440;48.208;11.162;2024-02-15T11:56:01;16.90;99.90
43810;DHT22;29440;48.208;11.162;2024-02-15T11:58:31;16.90;99.90
43810;DHT22;29440;48.208;11.162;2024-02-15T12:01:17;16.80;99.90
43810;DHT22;29440;48.208;11.162;2024-02-15T12:04:02;16.80;99.90
43810;DHT22;29440;48.208;11.162;2024-02-15T12:06:47;16.90;99.90
43810;DHT22;29440;48.208;11.162;2024-02-15T12:09:31;16.80;99.90
43810;DHT22;29440;48.208;11.162;2024-02-15T12:12:15;16.70;99.90
43810;DHT22;29440;48.208;11.162;2024-02-15T12:15:00;16.70;99.90
43810;DHT22;29440;48.208;11.162;2024-02-15T12:17:44;16.90;99.90
43810;DHT22;29440;48.208;11.162;2024-02-15T12:20:28;17.00;99.90
43810;DHT22;29440;48.208;11.162;2024-02-15T12:22:54;17.00;99.90
43810;DHT22;29440;48.208;11.162;2024-02-15T12:25:20;17.10;99.90
43810;DHT22;29440;48.208;11.162;2024-02-15T12:27:56;17.00;99.90
43810;DHT22;29440;48.208;11.162;2024-02-15T12:30:22;17.00;99.90
43810;DHT22;29440;48.208;11.162;2024-02-15T12:32:48;17.00;99.90
43810;DHT22;29440;48.208;11.162;2024-02-15T12:35:19;16.90;99.90
43810;DHT22;29440;48.208;11.162;2024-02-15T12:40:31;16.90;99.90
43810;DHT22;29440;48.208;11.162;2024-02-15T12:42:57;16.90;99.90
43810;DHT22;29440;48.208;11.162;2024-02-15T12:45:25;17.00;99.90
43810;DHT22;29440;48.208;11.162;2024-02-15T12:47:55;16.90;99.90
43810;DHT22;29440;48.208;11.162;2024-02-15T12:50:30;16.80;99.90
43810;DHT22;29440;48.208;11.162;2024-02-15T12:52:56;16.70;99.90
43810;DHT22;29440;48.208;11.162;2024-02-15T12:55:29;16.80;99.90
43810;DHT22;29440;48.208;11.162;2024-02-15T12:58:00;16.80;99.90
43810;DHT22;29440;48.208;11.162;2024-02-15T13:00:29;16.80;99.60
43810;DHT22;29440;48.208;11.162;2024-02-15T13:02:58;16.80;99.90
43810;DHT22;29440;48.208;11.162;2024-02-15T13:05:27;16.90;99.90
43810;DHT22;29440;48.208;11.162;2024-02-15T13:07:53;16.90;99.90
43810;DHT22;29440;48.208;11.162;2024-02-15T13:10:30;16.90;99.90
43810;DHT22;29440;48.208;11.162;2024-02-15T13:12:57;16.90;99.80
43810;DHT22;29440;48.208;11.162;2024-02-15T13:15:24;16.90;99.60
43810;DHT22;29440;48.208;11.162;2024-02-15T13:17:53;16.80;99.70
43810;DHT22;29440;48.208;11.162;2024-02-15T13:20:21;16.80;99.50
43810;DHT22;29440;48.208;11.162;2024-02-15T13:22:57;16.80;99.40
43810;DHT22;29440;48.208;11.162;2024-02-15T13:25:25;16.80;98.90
43810;DHT22;29440;48.208;11.162;2024-02-15T13:27:51;16.80;99.30
43810;DHT22;29440;48.208;11.162;2024-02-15T13:30:17;16.70;99.50
43810;DHT22;29440;48.208;11.162;2024-02-15T13:32:48;16.80;99.30
43810;DHT22;29440;48.208;11.162;2024-02-15T13:35:16;16.70;99.50
43810;DHT22;29440;48.208;11.162;2024-02-15T13:37:52;16.80;98.90
43810;DHT22;29440;48.208;11.162;2024-02-15T13:40:19;16.80;99.30
43810;DHT22;29440;48.208;11.162;2024-02-15T13:42:49;16.80;98.60
43810;DHT22;29440;48.208;11.162;2024-02-15T13:45:28;16.80;98.40
43810;DHT22;29440;48.208;11.162;2024-02-15T13:48:03;16.80;98.60
43810;DHT22;29440;48.208;11.162;2024-02-15T13:50:31;16.80;98.60
43810;DHT22;29440;48.208;11.162;2024-02-15T13:52:57;16.80;98.50
43810;DHT22;29440;48.208;11.162;2024-02-15T13:55:26;16.80;98.60
43810;DHT22;29440;48.208;11.162;2024-02-15T13:57:52;16.90;98.80
43810;DHT22;29440;48.208;11.162;2024-02-15T14:00:19;16.90;98.70
43810;DHT22;29440;48.208;11.162;2024-02-15T14:02:51;17.00;98.80
43810;DHT22;29440;48.208;11.162;2024-02-15T14:05:19;17.00;98.60
43810;DHT22;29440;48.208;11.162;2024-02-15T14:07:48;17.00;98.20
43810;DHT22;29440;48.208;11.162;2024-02-15T14:10:19;16.90;98.40
43810;DHT22;29440;48.208;11.162;2024-02-15T14:12:47;16.90;98.70
43810;DHT22;29440;48.208;11.162;2024-02-15T14:15:13;16.90;98.50
43810;DHT22;29440;48.208;11.162;2024-02-15T14:17:38;16.90;98.80
43810;DHT22;29440;48.208;11.162;2024-02-15T14:20:05;16.90;99.00
43810;DHT22;29440;48.208;11.162;2024-02-15T14:22:35;16.90;99.00
43810;DHT22;29440;48.208;11.162;2024-02-15T14:25:01;16.90;98.70
43810;DHT22;29440;48.208;11.162;2024-02-15T14:27:26;16.90;99.20
43810;DHT22;29440;48.208;11.162;2024-02-15T14:29:52;16.90;98.90
43810;DHT22;29440;48.208;11.162;2024-02-15T14:32:36;16.80;98.30
43810;DHT22;29440;48.208;11.162;2024-02-15T14:35:20;16.70;98.60
43810;DHT22;29440;48.208;11.162;2024-02-15T14:37:47;16.70;98.80
43810;DHT22;29440;48.208;11.162;2024-02-15T14:40:12;16.70;98.80
43810;DHT22;29440;48.208;11.162;2024-02-15T14:42:41;16.70;98.90
43810;DHT22;29440;48.208;11.162;2024-02-15T14:45:10;16.70;98.90
43810;DHT22;29440;48.208;11.162;2024-02-15T14:47:37;16.70;99.60
43810;DHT22;29440;48.208;11.162;2024-02-15T14:50:03;16.80;98.90
43810;DHT22;29440;48.208;11.162;2024-02-15T14:52:29;16.60;99.20
43810;DHT22;29440;48.208;11.162;2024-02-15T14:54:56;16.60;99.70
43810;DHT22;29440;48.208;11.162;2024-02-15T14:57:21;16.50;99.70
43810;DHT22;29440;48.208;11.162;2024-02-15T14:59:47;16.40;99.80
43810;DHT22;29440;48.208;11.162;2024-02-15T15:02:12;16.40;99.90
43810;DHT22;29440;48.208;11.162;2024-02-15T15:04:38;16.30;99.80
43810;DHT22;29440;48.208;11.162;2024-02-15T15:07:23;16.10;99.90
43810;DHT22;29440;48.208;11.162;2024-02-15T15:10:07;16.00;99.90
43810;DHT22;29440;48.208;11.162;2024-02-15T15:12:51;15.90;99.90
43810;DHT22;29440;48.208;11.162;2024-02-15T15:15:17;15.90;99.90
43810;DHT22;29440;48.208;11.162;2024-02-15T15:17:45;15.80;99.90
43810;DHT22;29440;48.208;11.162;2024-02-15T15:20:11;15.80;99.90
43810;DHT22;29440;48.208;11.162;2024-02-15T15:22:37;15.70;99.90
43810;DHT22;29440;48.208;11.162;2024-02-15T15:25:03;15.60;99.90
43810;DHT22;29440;48.208;11.162;2024-02-15T15:27:35;15.50;99.90
43810;DHT22;29440;48.208;11.162;2024-02-15T15:30:03;15.50;99.90
43810;DHT22;29440;48.208;11.162;2024-02-15T15:32:32;15.40;99.90
43810;DHT22;29440;48.208;11.162;2024-02-15T15:35:00;15.40;99.90
43810;DHT22;29440;48.208;11.162;2024-02-15T15:37:27;15.40;99.90
43810;DHT22;29440;48.208;11.162;2024-02-15T15:39:52;15.30;99.90
43810;DHT22;29440;48.208;11.162;2024-02-15T15:42:20;15.20;99.90